sensor_id;sensor_type;location;lat;lon;timestamp;P1;durP1;ratioP1;P2;durP2;ratioP2
30571;SDS011;17348;50.948;10.696;2023-07-20T00:00:36;11.27;;;4.97;;
30571;SDS011;17348;50.948;10.696;2023-07-20T00:03:40;6.00;;;4.55;;
30571;SDS011;17348;50.948;10.696;2023-07-20T00:06:42;9.27;;;4.72;;
30571;SDS011;17348;50.948;10.696;2023-07-20T00:09:44;12.18;;;5.63;;
30571;SDS011;17348;50.948;10.696;2023-07-20T00:12:49;11.25;;;4.93;;
30571;SDS011;17348;50.948;10.696;2023-07-20T00:15:51;10.40;;;4.78;;
30571;SDS011;17348;50.948;10.696;2023-07-20T00:18:55;10.80;;;5.28;;
30571;SDS011;17348;50.948;10.696;2023-07-20T00:21:57;11.73;;;5.63;;
30571;SDS011;17348;50.948;10.696;2023-07-20T00:24:59;7.90;;;4.53;;
30571;SDS011;17348;50.948;10.696;2023-07-20T00:28:02;12.88;;;5.13;;
30571;SDS011;17348;50.948;10.696;2023-07-20T00:31:04;11.43;;;5.07;;
30571;SDS011;17348;50.948;10.696;2023-07-20T00:34:08;12.25;;;5.15;;
30571;SDS011;17348;50.948;10.696;2023-07-20T00:37:13;10.30;;;4.68;;
30571;SDS011;17348;50.948;10.696;2023-07-20T00:40:15;10.63;;;4.72;;
30571;SDS011;17348;50.948;10.696;2023-07-20T00:43:18;5.90;;;3.90;;
30571;SDS011;17348;50.948;10.696;2023-07-20T00:46:20;8.35;;;4.40;;
30571;SDS011;17348;50.948;10.696;2023-07-20T00:49:26;7.75;;;3.90;;
30571;SDS011;17348;50.948;10.696;2023-07-20T00:52:28;11.10;;;4.20;;
30571;SDS011;17348;50.948;10.696;2023-07-20T00:55:31;11.52;;;2.88;;
30571;SDS011;17348;50.948;10.696;2023-07-20T00:58:34;13.68;;;4.10;;
30571;SDS011;17348;50.948;10.696;2023-07-20T01:01:37;5.70;;;3.92;;
30571;SDS011;17348;50.948;10.696;2023-07-20T01:04:40;7.13;;;4.18;;
30571;SDS011;17348;50.948;10.696;2023-07-20T01:07:51;12.43;;;3.83;;
30571;SDS011;17348;50.948;10.696;2023-07-20T01:11:01;12.93;;;3.65;;
30571;SDS011;17348;50.948;10.696;2023-07-20T01:14:10;9.48;;;3.78;;
30571;SDS011;17348;50.948;10.696;2023-07-20T01:17:14;15.43;;;5.05;;
30571;SDS011;17348;50.948;10.696;2023-07-20T01:20:19;7.82;;;3.90;;
30571;SDS011;17348;50.948;10.696;2023-07-20T01:23:27;11.13;;;4.00;;
30571;SDS011;17348;50.948;10.696;2023-07-20T01:26:52;6.35;;;4.00;;
30571;SDS011;17348;50.948;10.696;2023-07-20T01:30:25;5.95;;;3.00;;
30571;SDS011;17348;50.948;10.696;2023-07-20T01:33:43;16.63;;;4.55;;
30571;SDS011;17348;50.948;10.696;2023-07-20T01:36:48;12.35;;;3.83;;
30571;SDS011;17348;50.948;10.696;2023-07-20T01:39:54;9.18;;;3.72;;
30571;SDS011;17348;50.948;10.696;2023-07-20T01:42:57;11.18;;;3.63;;
30571;SDS011;17348;50.948;10.696;2023-07-20T01:45:59;10.18;;;3.17;;
30571;SDS011;17348;50.948;10.696;2023-07-20T01:49:03;6.10;;;3.50;;
30571;SDS011;17348;50.948;10.696;2023-07-20T01:52:05;4.65;;;3.15;;
30571;SDS011;17348;50.948;10.696;2023-07-20T01:55:08;5.78;;;3.63;;
30571;SDS011;17348;50.948;10.696;2023-07-20T01:58:10;7.70;;;3.47;;
30571;SDS011;17348;50.948;10.696;2023-07-20T02:01:13;7.60;;;3.85;;
30571;SDS011;17348;50.948;10.696;2023-07-20T02:04:16;6.97;;;3.63;;
30571;SDS011;17348;50.948;10.696;2023-07-20T02:07:19;9.18;;;4.07;;
30571;SDS011;17348;50.948;10.696;2023-07-20T02:10:21;5.00;;;3.97;;
30571;SDS011;17348;50.948;10.696;2023-07-20T02:13:23;6.45;;;3.63;;
30571;SDS011;17348;50.948;10.696;2023-07-20T02:16:26;5.90;;;3.63;;
30571;SDS011;17348;50.948;10.696;2023-07-20T02:19:29;9.63;;;4.13;;
30571;SDS011;17348;50.948;10.696;2023-07-20T02:22:32;10.25;;;3.75;;
30571;SDS011;17348;50.948;10.696;2023-07-20T02:25:34;9.80;;;4.22;;
30571;SDS011;17348;50.948;10.696;2023-07-20T02:28:36;6.88;;;3.58;;
30571;SDS011;17348;50.948;10.696;2023-07-20T02:31:39;8.23;;;3.90;;
30571;SDS011;17348;50.948;10.696;2023-07-20T02:34:44;6.10;;;3.58;;
30571;SDS011;17348;50.948;10.696;2023-07-20T02:37:47;16.45;;;3.85;;
30571;SDS011;17348;50.948;10.696;2023-07-20T02:40:49;6.72;;;3.45;;
30571;SDS011;17348;50.948;10.696;2023-07-20T02:43:52;6.20;;;3.35;;
30571;SDS011;17348;50.948;10.696;2023-07-20T02:46:54;8.75;;;3.63;;
30571;SDS011;17348;50.948;10.696;2023-07-20T02:49:58;8.30;;;3.50;;
30571;SDS011;17348;50.948;10.696;2023-07-20T02:53:00;7.13;;;3.17;;
30571;SDS011;17348;50.948;10.696;2023-07-20T02:56:03;5.00;;;3.63;;
30571;SDS011;17348;50.948;10.696;2023-07-20T02:59:05;8.38;;;3.65;;
30571;SDS011;17348;50.948;10.696;2023-07-20T03:02:08;12.45;;;3.90;;
30571;SDS011;17348;50.948;10.696;2023-07-20T03:05:12;9.80;;;3.60;;
30571;SDS011;17348;50.948;10.696;2023-07-20T03:08:14;10.07;;;3.78;;
30571;SDS011;17348;50.948;10.696;2023-07-20T03:11:17;7.72;;;3.15;;
30571;SDS011;17348;50.948;10.696;2023-07-20T03:14:20;11.68;;;4.28;;
30571;SDS011;17348;50.948;10.696;2023-07-20T03:17:24;12.25;;;3.38;;
30571;SDS011;17348;50.948;10.696;2023-07-20T03:20:27;9.18;;;3.08;;
30571;SDS011;17348;50.948;10.696;2023-07-20T03:23:30;9.35;;;3.83;;
30571;SDS011;17348;50.948;10.696;2023-07-20T03:26:32;8.35;;;3.22;;
30571;SDS011;17348;50.948;10.696;2023-07-20T03:29:34;5.93;;;3.53;;
30571;SDS011;17348;50.948;10.696;2023-07-20T03:32:37;15.63;;;3.58;;
30571;SDS011;17348;50.948;10.696;2023-07-20T03:35:40;10.52;;;4.10;;
30571;SDS011;17348;50.948;10.696;2023-07-20T03:38:44;10.50;;;3.60;;
30571;SDS011;17348;50.948;10.696;2023-07-20T03:41:46;8.60;;;3.60;;
30571;SDS011;17348;50.948;10.696;2023-07-20T03:44:49;10.30;;;4.03;;
30571;SDS011;17348;50.948;10.696;2023-07-20T03:47:51;11.73;;;3.42;;
30571;SDS011;17348;50.948;10.696;2023-07-20T03:50:55;14.38;;;4.43;;
30571;SDS011;17348;50.948;10.696;2023-07-20T03:53:57;15.50;;;4.32;;
30571;SDS011;17348;50.948;10.696;2023-07-20T03:57:00;16.92;;;4.03;;
30571;SDS011;17348;50.948;10.696;2023-07-20T04:00:02;8.13;;;3.33;;
30571;SDS011;17348;50.948;10.696;2023-07-20T04:03:08;7.35;;;3.90;;
30571;SDS011;17348;50.948;10.696;2023-07-20T04:06:12;16.33;;;3.83;;
30571;SDS011;17348;50.948;10.696;2023-07-20T04:09:14;11.85;;;4.07;;
30571;SDS011;17348;50.948;10.696;2023-07-20T04:12:17;9.43;;;3.70;;
30571;SDS011;17348;50.948;10.696;2023-07-20T04:15:19;14.82;;;3.90;;
30571;SDS011;17348;50.948;10.696;2023-07-20T04:18:21;5.95;;;3.50;;
30571;SDS011;17348;50.948;10.696;2023-07-20T04:21:26;12.25;;;4.53;;
30571;SDS011;17348;50.948;10.696;2023-07-20T04:24:29;12.75;;;3.90;;
30571;SDS011;17348;50.948;10.696;2023-07-20T04:27:31;16.75;;;4.00;;
30571;SDS011;17348;50.948;10.696;2023-07-20T04:30:33;12.50;;;3.78;;
30571;SDS011;17348;50.948;10.696;2023-07-20T04:33:36;5.50;;;3.28;;
30571;SDS011;17348;50.948;10.696;2023-07-20T04:36:40;10.07;;;3.80;;
30571;SDS011;17348;50.948;10.696;2023-07-20T04:39:42;13.00;;;3.90;;
30571;SDS011;17348;50.948;10.696;2023-07-20T04:42:45;13.20;;;4.03;;
30571;SDS011;17348;50.948;10.696;2023-07-20T04:45:47;7.30;;;3.47;;
30571;SDS011;17348;50.948;10.696;2023-07-20T04:48:50;13.05;;;3.97;;
30571;SDS011;17348;50.948;10.696;2023-07-20T04:51:54;7.10;;;3.90;;
30571;SDS011;17348;50.948;10.696;2023-07-20T04:54:56;11.75;;;3.53;;
30571;SDS011;17348;50.948;10.696;2023-07-20T04:57:59;7.10;;;4.28;;
30571;SDS011;17348;50.948;10.696;2023-07-20T05:01:01;19.50;;;3.83;;
30571;SDS011;17348;50.948;10.696;2023-07-20T05:04:04;8.73;;;3.33;;
30571;SDS011;17348;50.948;10.696;2023-07-20T05:07:07;11.10;;;3.53;;
30571;SDS011;17348;50.948;10.696;2023-07-20T05:10:10;16.08;;;4.15;;
30571;SDS011;17348;50.948;10.696;2023-07-20T05:13:13;12.55;;;4.07;;
30571;SDS011;17348;50.948;10.696;2023-07-20T05:16:15;19.33;;;4.07;;
30571;SDS011;17348;50.948;10.696;2023-07-20T05:19:17;13.02;;;4.18;;
30571;SDS011;17348;50.948;10.696;2023-07-20T05:22:21;8.68;;;4.20;;
30571;SDS011;17348;50.948;10.696;2023-07-20T05:25:25;13.48;;;4.22;;
30571;SDS011;17348;50.948;10.696;2023-07-20T05:28:30;20.73;;;4.50;;
30571;SDS011;17348;50.948;10.696;2023-07-20T05:31:32;14.27;;;3.67;;
30571;SDS011;17348;50.948;10.696;2023-07-20T05:34:35;17.00;;;3.90;;
30571;SDS011;17348;50.948;10.696;2023-07-20T05:37:38;17.88;;;5.03;;
30571;SDS011;17348;50.948;10.696;2023-07-20T05:40:41;12.57;;;4.15;;
30571;SDS011;17348;50.948;10.696;2023-07-20T05:43:43;10.20;;;3.78;;
30571;SDS011;17348;50.948;10.696;2023-07-20T05:46:46;14.85;;;4.65;;
30571;SDS011;17348;50.948;10.696;2023-07-20T05:49:48;8.35;;;3.88;;
30571;SDS011;17348;50.948;10.696;2023-07-20T05:52:53;10.73;;;4.28;;
30571;SDS011;17348;50.948;10.696;2023-07-20T05:55:55;9.30;;;4.57;;
30571;SDS011;17348;50.948;10.696;2023-07-20T05:58:58;11.82;;;4.22;;
30571;SDS011;17348;50.948;10.696;2023-07-20T06:02:00;15.98;;;3.60;;
30571;SDS011;17348;50.948;10.696;2023-07-20T06:05:03;5.72;;;3.30;;
30571;SDS011;17348;50.948;10.696;2023-07-20T06:08:07;11.07;;;3.00;;
30571;SDS011;17348;50.948;10.696;2023-07-20T06:11:09;7.38;;;3.97;;
30571;SDS011;17348;50.948;10.696;2023-07-20T06:14:12;9.50;;;3.92;;
30571;SDS011;17348;50.948;10.696;2023-07-20T06:17:14;8.43;;;3.65;;
30571;SDS011;17348;50.948;10.696;2023-07-20T06:20:16;8.93;;;3.65;;
30571;SDS011;17348;50.948;10.696;2023-07-20T06:23:20;11.88;;;3.75;;
30571;SDS011;17348;50.948;10.696;2023-07-20T06:26:23;7.53;;;3.75;;
30571;SDS011;17348;50.948;10.696;2023-07-20T06:29:25;12.35;;;4.22;;
30571;SDS011;17348;50.948;10.696;2023-07-20T06:32:27;13.40;;;3.67;;
30571;SDS011;17348;50.948;10.696;2023-07-20T06:35:30;11.40;;;3.25;;
30571;SDS011;17348;50.948;10.696;2023-07-20T06:38:33;14.10;;;3.80;;
30571;SDS011;17348;50.948;10.696;2023-07-20T06:41:36;7.47;;;3.25;;
30571;SDS011;17348;50.948;10.696;2023-07-20T06:44:39;8.35;;;3.67;;
30571;SDS011;17348;50.948;10.696;2023-07-20T06:47:41;5.55;;;3.30;;
30571;SDS011;17348;50.948;10.696;2023-07-20T06:50:43;9.93;;;3.33;;
30571;SDS011;17348;50.948;10.696;2023-07-20T06:53:47;9.27;;;3.15;;
30571;SDS011;17348;50.948;10.696;2023-07-20T06:56:49;6.13;;;2.90;;
30571;SDS011;17348;50.948;10.696;2023-07-20T06:59:52;4.53;;;3.22;;
30571;SDS011;17348;50.948;10.696;2023-07-20T07:02:55;5.57;;;3.13;;
30571;SDS011;17348;50.948;10.696;2023-07-20T07:05:57;11.88;;;3.72;;
30571;SDS011;17348;50.948;10.696;2023-07-20T07:09:01;6.00;;;3.40;;
30571;SDS011;17348;50.948;10.696;2023-07-20T07:12:04;6.10;;;3.45;;
30571;SDS011;17348;50.948;10.696;2023-07-20T07:15:07;5.93;;;2.75;;
30571;SDS011;17348;50.948;10.696;2023-07-20T07:18:11;9.32;;;3.60;;
30571;SDS011;17348;50.948;10.696;2023-07-20T07:21:13;5.68;;;3.10;;
30571;SDS011;17348;50.948;10.696;2023-07-20T07:24:17;6.10;;;3.63;;
30571;SDS011;17348;50.948;10.696;2023-07-20T07:27:19;9.73;;;3.60;;
30571;SDS011;17348;50.948;10.696;2023-07-20T07:30:22;6.72;;;2.88;;
30571;SDS011;17348;50.948;10.696;2023-07-20T07:33:24;11.02;;;3.20;;
30571;SDS011;17348;50.948;10.696;2023-07-20T07:36:27;6.20;;;2.92;;
30571;SDS011;17348;50.948;10.696;2023-07-20T07:39:30;5.25;;;2.80;;
30571;SDS011;17348;50.948;10.696;2023-07-20T07:42:33;5.38;;;3.63;;
30571;SDS011;17348;50.948;10.696;2023-07-20T07:45:35;6.75;;;3.25;;
30571;SDS011;17348;50.948;10.696;2023-07-20T07:48:38;7.05;;;4.00;;
30571;SDS011;17348;50.948;10.696;2023-07-20T07:51:40;5.10;;;3.10;;
30571;SDS011;17348;50.948;10.696;2023-07-20T07:54:44;5.18;;;3.00;;
30571;SDS011;17348;50.948;10.696;2023-07-20T07:57:46;4.63;;;2.90;;
30571;SDS011;17348;50.948;10.696;2023-07-20T08:00:49;9.25;;;3.05;;
30571;SDS011;17348;50.948;10.696;2023-07-20T08:03:51;5.65;;;3.03;;
30571;SDS011;17348;50.948;10.696;2023-07-20T08:06:53;10.57;;;3.25;;
30571;SDS011;17348;50.948;10.696;2023-07-20T08:09:57;5.70;;;2.88;;
30571;SDS011;17348;50.948;10.696;2023-07-20T08:12:59;5.07;;;2.78;;
30571;SDS011;17348;50.948;10.696;2023-07-20T08:16:02;5.32;;;2.47;;
30571;SDS011;17348;50.948;10.696;2023-07-20T08:19:04;5.68;;;2.65;;
30571;SDS011;17348;50.948;10.696;2023-07-20T08:22:06;5.03;;;2.90;;
30571;SDS011;17348;50.948;10.696;2023-07-20T08:25:10;5.20;;;2.20;;
30571;SDS011;17348;50.948;10.696;2023-07-20T08:28:14;6.75;;;2.55;;
30571;SDS011;17348;50.948;10.696;2023-07-20T08:31:16;6.22;;;2.70;;
30571;SDS011;17348;50.948;10.696;2023-07-20T08:34:19;11.77;;;2.67;;
30571;SDS011;17348;50.948;10.696;2023-07-20T08:37:21;8.95;;;2.35;;
30571;SDS011;17348;50.948;10.696;2023-07-20T08:40:25;6.93;;;2.13;;
30571;SDS011;17348;50.948;10.696;2023-07-20T08:43:28;4.65;;;2.60;;
30571;SDS011;17348;50.948;10.696;2023-07-20T08:46:31;7.75;;;2.63;;
30571;SDS011;17348;50.948;10.696;2023-07-20T08:49:36;5.85;;;2.40;;
30571;SDS011;17348;50.948;10.696;2023-07-20T08:52:40;9.90;;;2.63;;
30571;SDS011;17348;50.948;10.696;2023-07-20T08:55:44;3.72;;;2.58;;
30571;SDS011;17348;50.948;10.696;2023-07-20T08:58:47;5.00;;;2.20;;
30571;SDS011;17348;50.948;10.696;2023-07-20T09:01:50;2.92;;;2.00;;
30571;SDS011;17348;50.948;10.696;2023-07-20T09:04:54;6.25;;;2.55;;
30571;SDS011;17348;50.948;10.696;2023-07-20T09:07:57;9.07;;;2.40;;
30571;SDS011;17348;50.948;10.696;2023-07-20T09:11:00;2.83;;;2.28;;
30571;SDS011;17348;50.948;10.696;2023-07-20T09:14:04;10.45;;;2.45;;
30571;SDS011;17348;50.948;10.696;2023-07-20T09:17:07;4.72;;;2.00;;
30571;SDS011;17348;50.948;10.696;2023-07-20T09:20:16;6.82;;;2.38;;
30571;SDS011;17348;50.948;10.696;2023-07-20T09:23:19;3.85;;;2.08;;
30571;SDS011;17348;50.948;10.696;2023-07-20T09:26:23;4.93;;;2.15;;
30571;SDS011;17348;50.948;10.696;2023-07-20T09:29:25;6.40;;;2.35;;
30571;SDS011;17348;50.948;10.696;2023-07-20T09:32:27;22.10;;;3.72;;
30571;SDS011;17348;50.948;10.696;2023-07-20T09:35:30;38.92;;;4.82;;
30571;SDS011;17348;50.948;10.696;2023-07-20T09:38:32;15.02;;;3.28;;
30571;SDS011;17348;50.948;10.696;2023-07-20T09:41:41;8.30;;;2.67;;
30571;SDS011;17348;50.948;10.696;2023-07-20T09:44:43;8.25;;;3.17;;
30571;SDS011;17348;50.948;10.696;2023-07-20T09:47:46;7.10;;;3.25;;
30571;SDS011;17348;50.948;10.696;2023-07-20T09:50:49;7.00;;;2.85;;
30571;SDS011;17348;50.948;10.696;2023-07-20T09:53:52;3.85;;;2.88;;
30571;SDS011;17348;50.948;10.696;2023-07-20T09:56:57;3.45;;;2.42;;
30571;SDS011;17348;50.948;10.696;2023-07-20T10:00:00;3.30;;;2.00;;
30571;SDS011;17348;50.948;10.696;2023-07-20T10:03:05;3.35;;;1.73;;
30571;SDS011;17348;50.948;10.696;2023-07-20T10:06:08;3.35;;;1.48;;
30571;SDS011;17348;50.948;10.696;2023-07-20T10:09:14;1.70;;;1.05;;
30571;SDS011;17348;50.948;10.696;2023-07-20T10:12:19;2.25;;;1.33;;
30571;SDS011;17348;50.948;10.696;2023-07-20T10:15:25;1.13;;;1.02;;
30571;SDS011;17348;50.948;10.696;2023-07-20T10:18:33;2.53;;;1.10;;
30571;SDS011;17348;50.948;10.696;2023-07-20T10:21:40;1.20;;;0.95;;
30571;SDS011;17348;50.948;10.696;2023-07-20T10:24:45;1.13;;;0.80;;
30571;SDS011;17348;50.948;10.696;2023-07-20T10:27:50;4.57;;;0.93;;
30571;SDS011;17348;50.948;10.696;2023-07-20T10:30:52;1.23;;;1.10;;
30571;SDS011;17348;50.948;10.696;2023-07-20T10:33:56;1.88;;;1.35;;
30571;SDS011;17348;50.948;10.696;2023-07-20T10:36:58;2.92;;;1.38;;
30571;SDS011;17348;50.948;10.696;2023-07-20T10:43:33;4.97;;;1.58;;
30571;SDS011;17348;50.948;10.696;2023-07-20T10:46:44;5.10;;;1.60;;
30571;SDS011;17348;50.948;10.696;2023-07-20T10:50:00;1.67;;;1.40;;
30571;SDS011;17348;50.948;10.696;2023-07-20T10:53:10;8.43;;;1.70;;
30571;SDS011;17348;50.948;10.696;2023-07-20T10:56:14;2.67;;;1.73;;
30571;SDS011;17348;50.948;10.696;2023-07-20T10:59:19;2.03;;;1.65;;
30571;SDS011;17348;50.948;10.696;2023-07-20T11:02:44;2.55;;;1.80;;
30571;SDS011;17348;50.948;10.696;2023-07-20T11:05:47;5.05;;;1.92;;
30571;SDS011;17348;50.948;10.696;2023-07-20T11:08:54;3.50;;;1.77;;
30571;SDS011;17348;50.948;10.696;2023-07-20T11:12:08;1.52;;;1.30;;
30571;SDS011;17348;50.948;10.696;2023-07-20T11:15:13;4.40;;;1.83;;
30571;SDS011;17348;50.948;10.696;2023-07-20T11:18:15;4.40;;;1.52;;
30571;SDS011;17348;50.948;10.696;2023-07-20T11:21:17;1.88;;;1.48;;
30571;SDS011;17348;50.948;10.696;2023-07-20T11:24:20;3.75;;;1.77;;
30571;SDS011;17348;50.948;10.696;2023-07-20T11:27:22;1.85;;;1.38;;
30571;SDS011;17348;50.948;10.696;2023-07-20T11:30:26;4.78;;;1.98;;
30571;SDS011;17348;50.948;10.696;2023-07-20T11:33:34;4.25;;;2.00;;
30571;SDS011;17348;50.948;10.696;2023-07-20T11:36:36;2.65;;;1.92;;
30571;SDS011;17348;50.948;10.696;2023-07-20T11:39:39;2.08;;;1.88;;
30571;SDS011;17348;50.948;10.696;2023-07-20T11:42:41;3.85;;;1.83;;
30571;SDS011;17348;50.948;10.696;2023-07-20T11:45:47;3.33;;;1.85;;
30571;SDS011;17348;50.948;10.696;2023-07-20T11:48:55;1.70;;;1.60;;
30571;SDS011;17348;50.948;10.696;2023-07-20T11:51:58;2.42;;;1.80;;
30571;SDS011;17348;50.948;10.696;2023-07-20T11:55:01;1.80;;;1.50;;
30571;SDS011;17348;50.948;10.696;2023-07-20T11:58:04;1.98;;;1.52;;
30571;SDS011;17348;50.948;10.696;2023-07-20T12:01:09;2.60;;;1.80;;
30571;SDS011;17348;50.948;10.696;2023-07-20T12:04:11;2.10;;;1.30;;
30571;SDS011;17348;50.948;10.696;2023-07-20T12:07:14;1.58;;;1.10;;
30571;SDS011;17348;50.948;10.696;2023-07-20T12:10:16;2.28;;;1.60;;
30571;SDS011;17348;50.948;10.696;2023-07-20T12:13:34;4.47;;;1.67;;
30571;SDS011;17348;50.948;10.696;2023-07-20T12:16:39;3.58;;;1.65;;
30571;SDS011;17348;50.948;10.696;2023-07-20T12:19:41;3.50;;;1.10;;
30571;SDS011;17348;50.948;10.696;2023-07-20T12:22:43;1.58;;;1.20;;
30571;SDS011;17348;50.948;10.696;2023-07-20T12:25:46;1.58;;;1.23;;
30571;SDS011;17348;50.948;10.696;2023-07-20T12:28:48;4.57;;;1.50;;
30571;SDS011;17348;50.948;10.696;2023-07-20T12:31:52;1.77;;;1.35;;
30571;SDS011;17348;50.948;10.696;2023-07-20T12:34:55;3.00;;;1.38;;
30571;SDS011;17348;50.948;10.696;2023-07-20T12:37:57;2.30;;;1.55;;
30571;SDS011;17348;50.948;10.696;2023-07-20T12:41:00;1.90;;;1.58;;
30571;SDS011;17348;50.948;10.696;2023-07-20T12:44:03;1.35;;;1.25;;
30571;SDS011;17348;50.948;10.696;2023-07-20T12:47:07;2.22;;;1.58;;
30571;SDS011;17348;50.948;10.696;2023-07-20T12:50:09;3.15;;;1.60;;
30571;SDS011;17348;50.948;10.696;2023-07-20T12:53:12;2.92;;;1.73;;
30571;SDS011;17348;50.948;10.696;2023-07-20T12:56:14;1.98;;;1.48;;
30571;SDS011;17348;50.948;10.696;2023-07-20T12:59:17;4.72;;;2.10;;
30571;SDS011;17348;50.948;10.696;2023-07-20T13:02:20;3.53;;;1.38;;
30571;SDS011;17348;50.948;10.696;2023-07-20T13:05:23;3.40;;;1.98;;
30571;SDS011;17348;50.948;10.696;2023-07-20T13:08:25;3.60;;;1.95;;
30571;SDS011;17348;50.948;10.696;2023-07-20T13:11:28;2.20;;;1.50;;
30571;SDS011;17348;50.948;10.696;2023-07-20T13:14:30;5.35;;;1.20;;
30571;SDS011;17348;50.948;10.696;2023-07-20T13:17:34;2.20;;;1.52;;
30571;SDS011;17348;50.948;10.696;2023-07-20T13:20:37;1.67;;;1.40;;
30571;SDS011;17348;50.948;10.696;2023-07-20T13:23:39;1.88;;;1.48;;
30571;SDS011;17348;50.948;10.696;2023-07-20T13:26:41;2.47;;;1.30;;
30571;SDS011;17348;50.948;10.696;2023-07-20T13:29:44;1.92;;;1.42;;
30571;SDS011;17348;50.948;10.696;2023-07-20T13:32:47;4.70;;;1.63;;
30571;SDS011;17348;50.948;10.696;2023-07-20T13:35:50;7.13;;;1.70;;
30571;SDS011;17348;50.948;10.696;2023-07-20T13:38:52;2.15;;;1.85;;
30571;SDS011;17348;50.948;10.696;2023-07-20T13:41:55;2.72;;;1.50;;
30571;SDS011;17348;50.948;10.696;2023-07-20T13:44:57;2.15;;;1.23;;
30571;SDS011;17348;50.948;10.696;2023-07-20T13:48:01;1.60;;;1.50;;
30571;SDS011;17348;50.948;10.696;2023-07-20T13:51:03;1.55;;;1.23;;
30571;SDS011;17348;50.948;10.696;2023-07-20T13:54:06;1.77;;;1.40;;
30571;SDS011;17348;50.948;10.696;2023-07-20T13:57:08;3.03;;;2.13;;
30571;SDS011;17348;50.948;10.696;2023-07-20T14:00:11;1.95;;;1.50;;
30571;SDS011;17348;50.948;10.696;2023-07-20T14:03:17;7.63;;;1.80;;
30571;SDS011;17348;50.948;10.696;2023-07-20T14:06:19;2.90;;;2.08;;
30571;SDS011;17348;50.948;10.696;2023-07-20T14:09:22;3.35;;;1.42;;
30571;SDS011;17348;50.948;10.696;2023-07-20T14:12:25;1.67;;;1.50;;
30571;SDS011;17348;50.948;10.696;2023-07-20T14:15:39;3.00;;;2.17;;
30571;SDS011;17348;50.948;10.696;2023-07-20T14:18:43;2.45;;;1.45;;
30571;SDS011;17348;50.948;10.696;2023-07-20T14:21:47;6.20;;;1.38;;
30571;SDS011;17348;50.948;10.696;2023-07-20T14:24:50;6.97;;;1.35;;
30571;SDS011;17348;50.948;10.696;2023-07-20T14:27:52;2.63;;;1.40;;
30571;SDS011;17348;50.948;10.696;2023-07-20T14:30:54;2.47;;;1.30;;
30571;SDS011;17348;50.948;10.696;2023-07-20T14:33:58;2.72;;;1.30;;
30571;SDS011;17348;50.948;10.696;2023-07-20T14:37:01;1.35;;;1.08;;
30571;SDS011;17348;50.948;10.696;2023-07-20T14:40:05;7.68;;;1.00;;
30571;SDS011;17348;50.948;10.696;2023-07-20T14:43:08;1.08;;;0.98;;
30571;SDS011;17348;50.948;10.696;2023-07-20T14:46:11;1.08;;;0.82;;
30571;SDS011;17348;50.948;10.696;2023-07-20T14:49:14;0.68;;;0.68;;
30571;SDS011;17348;50.948;10.696;2023-07-20T14:52:18;1.23;;;0.75;;
30571;SDS011;17348;50.948;10.696;2023-07-20T14:55:20;1.30;;;0.90;;
30571;SDS011;17348;50.948;10.696;2023-07-20T14:58:23;1.13;;;0.98;;
30571;SDS011;17348;50.948;10.696;2023-07-20T15:01:25;1.88;;;1.10;;
30571;SDS011;17348;50.948;10.696;2023-07-20T15:04:29;2.10;;;1.20;;
30571;SDS011;17348;50.948;10.696;2023-07-20T15:07:31;8.95;;;1.52;;
30571;SDS011;17348;50.948;10.696;2023-07-20T15:10:34;4.20;;;1.70;;
30571;SDS011;17348;50.948;10.696;2023-07-20T15:13:36;2.67;;;1.73;;
30571;SDS011;17348;50.948;10.696;2023-07-20T15:16:39;2.88;;;1.23;;
30571;SDS011;17348;50.948;10.696;2023-07-20T15:19:44;6.53;;;2.03;;
30571;SDS011;17348;50.948;10.696;2023-07-20T15:22:46;1.65;;;1.30;;
30571;SDS011;17348;50.948;10.696;2023-07-20T15:25:48;1.05;;;0.90;;
30571;SDS011;17348;50.948;10.696;2023-07-20T15:28:51;4.63;;;1.65;;
30571;SDS011;17348;50.948;10.696;2023-07-20T15:31:53;3.47;;;1.67;;
30571;SDS011;17348;50.948;10.696;2023-07-20T15:34:57;2.13;;;1.55;;
30571;SDS011;17348;50.948;10.696;2023-07-20T15:37:59;1.98;;;1.55;;
30571;SDS011;17348;50.948;10.696;2023-07-20T15:41:02;5.22;;;1.63;;
30571;SDS011;17348;50.948;10.696;2023-07-20T15:44:04;2.15;;;1.40;;
30571;SDS011;17348;50.948;10.696;2023-07-20T15:47:06;3.30;;;1.52;;
30571;SDS011;17348;50.948;10.696;2023-07-20T15:50:10;2.92;;;1.50;;
30571;SDS011;17348;50.948;10.696;2023-07-20T15:53:13;4.43;;;1.00;;
30571;SDS011;17348;50.948;10.696;2023-07-20T15:56:15;1.17;;;1.08;;
30571;SDS011;17348;50.948;10.696;2023-07-20T15:59:17;1.55;;;1.23;;
30571;SDS011;17348;50.948;10.696;2023-07-20T16:02:20;2.00;;;1.33;;
30571;SDS011;17348;50.948;10.696;2023-07-20T16:05:23;3.30;;;1.10;;
30571;SDS011;17348;50.948;10.696;2023-07-20T16:08:26;2.35;;;1.45;;
30571;SDS011;17348;50.948;10.696;2023-07-20T16:11:28;1.05;;;0.93;;
30571;SDS011;17348;50.948;10.696;2023-07-20T16:14:30;0.65;;;0.60;;
30571;SDS011;17348;50.948;10.696;2023-07-20T16:17:33;1.05;;;0.82;;
30571;SDS011;17348;50.948;10.696;2023-07-20T16:20:37;1.20;;;0.90;;
30571;SDS011;17348;50.948;10.696;2023-07-20T16:23:40;2.00;;;1.17;;
30571;SDS011;17348;50.948;10.696;2023-07-20T16:26:42;1.73;;;1.00;;
30571;SDS011;17348;50.948;10.696;2023-07-20T16:29:44;1.63;;;0.70;;
30571;SDS011;17348;50.948;10.696;2023-07-20T16:32:47;1.20;;;0.93;;
30571;SDS011;17348;50.948;10.696;2023-07-20T16:35:50;2.55;;;0.55;;
30571;SDS011;17348;50.948;10.696;2023-07-20T16:38:54;0.90;;;0.50;;
30571;SDS011;17348;50.948;10.696;2023-07-20T16:41:57;1.88;;;0.57;;
30571;SDS011;17348;50.948;10.696;2023-07-20T16:44:59;1.15;;;0.63;;
30571;SDS011;17348;50.948;10.696;2023-07-20T16:48:01;0.98;;;0.70;;
30571;SDS011;17348;50.948;10.696;2023-07-20T16:51:05;1.67;;;0.50;;
30571;SDS011;17348;50.948;10.696;2023-07-20T16:54:08;1.35;;;0.55;;
30571;SDS011;17348;50.948;10.696;2023-07-20T16:57:11;1.48;;;0.80;;
30571;SDS011;17348;50.948;10.696;2023-07-20T17:00:13;2.17;;;0.80;;
30571;SDS011;17348;50.948;10.696;2023-07-20T17:03:17;3.00;;;0.60;;
30571;SDS011;17348;50.948;10.696;2023-07-20T17:06:21;4.75;;;0.80;;
30571;SDS011;17348;50.948;10.696;2023-07-20T17:09:23;1.10;;;0.80;;
30571;SDS011;17348;50.948;10.696;2023-07-20T17:12:26;1.35;;;0.77;;
30571;SDS011;17348;50.948;10.696;2023-07-20T17:15:30;0.80;;;0.77;;
30571;SDS011;17348;50.948;10.696;2023-07-20T17:18:33;1.90;;;0.73;;
30571;SDS011;17348;50.948;10.696;2023-07-20T17:21:36;3.17;;;0.80;;
30571;SDS011;17348;50.948;10.696;2023-07-20T17:24:39;5.28;;;0.65;;
30571;SDS011;17348;50.948;10.696;2023-07-20T17:27:41;5.35;;;0.90;;
30571;SDS011;17348;50.948;10.696;2023-07-20T17:30:43;2.08;;;1.00;;
30571;SDS011;17348;50.948;10.696;2023-07-20T17:33:46;0.70;;;0.70;;
30571;SDS011;17348;50.948;10.696;2023-07-20T17:36:49;3.33;;;0.65;;
30571;SDS011;17348;50.948;10.696;2023-07-20T17:39:52;1.02;;;0.68;;
30571;SDS011;17348;50.948;10.696;2023-07-20T17:42:56;0.82;;;0.55;;
30571;SDS011;17348;50.948;10.696;2023-07-20T17:45:58;1.00;;;0.57;;
30571;SDS011;17348;50.948;10.696;2023-07-20T17:49:00;3.10;;;0.95;;
30571;SDS011;17348;50.948;10.696;2023-07-20T17:52:05;2.13;;;0.63;;
30571;SDS011;17348;50.948;10.696;2023-07-20T17:55:07;0.75;;;0.55;;
30571;SDS011;17348;50.948;10.696;2023-07-20T17:58:10;0.60;;;0.55;;
30571;SDS011;17348;50.948;10.696;2023-07-20T18:01:12;2.10;;;0.60;;
30571;SDS011;17348;50.948;10.696;2023-07-20T18:04:15;1.00;;;0.68;;
30571;SDS011;17348;50.948;10.696;2023-07-20T18:07:19;0.70;;;0.68;;